sensor_id;sensor_type;location;lat;lon;timestamp;P1;durP1;ratioP1;P2;durP2;ratioP2
1390;SDS011;690;51.454;7.194;2022-11-20T00:00:38;25.55;;;15.52;;
1390;SDS011;690;51.454;7.194;2022-11-20T00:03:05;21.52;;;16.40;;
1390;SDS011;690;51.454;7.194;2022-11-20T00:05:32;22.58;;;16.23;;
1390;SDS011;690;51.454;7.194;2022-11-20T00:07:59;24.35;;;15.45;;
1390;SDS011;690;51.454;7.194;2022-11-20T00:10:26;23.50;;;16.20;;
1390;SDS011;690;51.454;7.194;2022-11-20T00:12:54;24.58;;;15.80;;
1390;SDS011;690;51.454;7.194;2022-11-20T00:15:21;25.23;;;16.38;;
1390;SDS011;690;51.454;7.194;2022-11-20T00:17:48;21.65;;;15.52;;
1390;SDS011;690;51.454;7.194;2022-11-20T00:20:15;22.75;;;14.75;;
1390;SDS011;690;51.454;7.194;2022-11-20T00:22:42;23.92;;;16.67;;
1390;SDS011;690;51.454;7.194;2022-11-20T00:25:09;27.67;;;16.55;;
1390;SDS011;690;51.454;7.194;2022-11-20T00:27:36;22.17;;;15.73;;
1390;SDS011;690;51.454;7.194;2022-11-20T00:30:05;23.48;;;15.75;;
1390;SDS011;690;51.454;7.194;2022-11-20T00:32:33;27.23;;;15.85;;
1390;SDS011;690;51.454;7.194;2022-11-20T00:35:00;23.27;;;16.25;;
1390;SDS011;690;51.454;7.194;2022-11-20T00:37:26;25.50;;;17.27;;
1390;SDS011;690;51.454;7.194;2022-11-20T00:39:53;26.15;;;18.35;;
1390;SDS011;690;51.454;7.194;2022-11-20T00:42:20;21.02;;;15.20;;
1390;SDS011;690;51.454;7.194;2022-11-20T00:44:47;24.45;;;15.63;;
1390;SDS011;690;51.454;7.194;2022-11-20T00:47:15;28.80;;;15.77;;
1390;SDS011;690;51.454;7.194;2022-11-20T00:49:42;26.05;;;17.00;;
1390;SDS011;690;51.454;7.194;2022-11-20T00:52:09;23.17;;;15.60;;
1390;SDS011;690;51.454;7.194;2022-11-20T00:54:36;22.42;;;15.77;;
1390;SDS011;690;51.454;7.194;2022-11-20T00:57:03;25.95;;;15.55;;
1390;SDS011;690;51.454;7.194;2022-11-20T00:59:29;22.60;;;15.52;;
1390;SDS011;690;51.454;7.194;2022-11-20T01:01:56;22.98;;;15.35;;
1390;SDS011;690;51.454;7.194;2022-11-20T01:04:24;26.60;;;16.40;;
1390;SDS011;690;51.454;7.194;2022-11-20T01:06:51;23.58;;;15.43;;
1390;SDS011;690;51.454;7.194;2022-11-20T01:09:18;21.40;;;14.43;;
1390;SDS011;690;51.454;7.194;2022-11-20T01:11:45;22.30;;;15.50;;
1390;SDS011;690;51.454;7.194;2022-11-20T01:14:13;28.02;;;15.15;;
1390;SDS011;690;51.454;7.194;2022-11-20T01:16:43;23.35;;;16.20;;
1390;SDS011;690;51.454;7.194;2022-11-20T01:19:11;25.65;;;16.00;;
1390;SDS011;690;51.454;7.194;2022-11-20T01:21:42;28.90;;;17.65;;
1390;SDS011;690;51.454;7.194;2022-11-20T01:24:10;21.02;;;15.20;;
1390;SDS011;690;51.454;7.194;2022-11-20T01:26:39;21.10;;;14.98;;
1390;SDS011;690;51.454;7.194;2022-11-20T01:29:09;25.88;;;16.15;;
1390;SDS011;690;51.454;7.194;2022-11-20T01:31:39;25.60;;;17.17;;
1390;SDS011;690;51.454;7.194;2022-11-20T01:34:06;25.65;;;15.95;;
1390;SDS011;690;51.454;7.194;2022-11-20T01:36:37;24.58;;;16.08;;
1390;SDS011;690;51.454;7.194;2022-11-20T01:39:06;21.85;;;14.60;;
1390;SDS011;690;51.454;7.194;2022-11-20T01:41:36;24.20;;;15.93;;
1390;SDS011;690;51.454;7.194;2022-11-20T01:44:22;20.23;;;14.93;;
1390;SDS011;690;51.454;7.194;2022-11-20T01:47:04;28.33;;;15.93;;
1390;SDS011;690;51.454;7.194;2022-11-20T01:49:34;24.65;;;15.07;;
1390;SDS011;690;51.454;7.194;2022-11-20T01:52:07;21.27;;;14.43;;
1390;SDS011;690;51.454;7.194;2022-11-20T01:54:44;22.63;;;15.85;;
1390;SDS011;690;51.454;7.194;2022-11-20T01:57:14;20.15;;;15.27;;
1390;SDS011;690;51.454;7.194;2022-11-20T01:59:43;23.52;;;15.57;;
1390;SDS011;690;51.454;7.194;2022-11-20T02:02:15;21.85;;;15.30;;
1390;SDS011;690;51.454;7.194;2022-11-20T02:04:42;29.02;;;15.85;;
1390;SDS011;690;51.454;7.194;2022-11-20T02:07:09;23.75;;;16.15;;
1390;SDS011;690;51.454;7.194;2022-11-20T02:09:37;22.80;;;16.00;;
1390;SDS011;690;51.454;7.194;2022-11-20T02:12:06;25.73;;;15.73;;
1390;SDS011;690;51.454;7.194;2022-11-20T02:14:53;21.05;;;14.93;;
1390;SDS011;690;51.454;7.194;2022-11-20T02:17:19;22.40;;;15.97;;
1390;SDS011;690;51.454;7.194;2022-11-20T02:19:46;24.50;;;15.55;;
1390;SDS011;690;51.454;7.194;2022-11-20T02:22:14;25.33;;;16.13;;
1390;SDS011;690;51.454;7.194;2022-11-20T02:24:47;24.88;;;16.40;;
1390;SDS011;690;51.454;7.194;2022-11-20T02:27:17;25.98;;;17.52;;
1390;SDS011;690;51.454;7.194;2022-11-20T02:29:45;25.45;;;16.92;;
1390;SDS011;690;51.454;7.194;2022-11-20T02:32:19;27.60;;;17.27;;
1390;SDS011;690;51.454;7.194;2022-11-20T02:34:46;28.10;;;16.88;;
1390;SDS011;690;51.454;7.194;2022-11-20T02:37:13;27.55;;;17.02;;
1390;SDS011;690;51.454;7.194;2022-11-20T02:39:41;24.45;;;16.52;;
1390;SDS011;690;51.454;7.194;2022-11-20T02:42:12;25.20;;;14.65;;
1390;SDS011;690;51.454;7.194;2022-11-20T02:44:38;23.00;;;15.48;;
1390;SDS011;690;51.454;7.194;2022-11-20T02:47:05;22.52;;;16.63;;
1390;SDS011;690;51.454;7.194;2022-11-20T02:49:32;20.85;;;15.52;;
1390;SDS011;690;51.454;7.194;2022-11-20T02:51:59;22.50;;;16.50;;
1390;SDS011;690;51.454;7.194;2022-11-20T02:54:26;26.85;;;17.30;;
1390;SDS011;690;51.454;7.194;2022-11-20T02:56:53;26.52;;;17.00;;
1390;SDS011;690;51.454;7.194;2022-11-20T02:59:21;23.55;;;15.25;;
1390;SDS011;690;51.454;7.194;2022-11-20T03:01:48;23.50;;;16.50;;
1390;SDS011;690;51.454;7.194;2022-11-20T03:04:15;26.65;;;16.73;;
1390;SDS011;690;51.454;7.194;2022-11-20T03:06:42;22.25;;;15.05;;
1390;SDS011;690;51.454;7.194;2022-11-20T03:09:09;23.35;;;15.88;;
1390;SDS011;690;51.454;7.194;2022-11-20T03:11:35;22.00;;;15.82;;
1390;SDS011;690;51.454;7.194;2022-11-20T03:14:02;25.15;;;16.52;;
1390;SDS011;690;51.454;7.194;2022-11-20T03:16:31;24.98;;;15.80;;
1390;SDS011;690;51.454;7.194;2022-11-20T03:18:58;28.10;;;15.27;;
1390;SDS011;690;51.454;7.194;2022-11-20T03:21:25;24.98;;;15.63;;
1390;SDS011;690;51.454;7.194;2022-11-20T03:23:52;24.70;;;15.77;;
1390;SDS011;690;51.454;7.194;2022-11-20T03:26:20;20.05;;;14.07;;
1390;SDS011;690;51.454;7.194;2022-11-20T03:28:49;27.48;;;16.92;;
1390;SDS011;690;51.454;7.194;2022-11-20T03:31:19;21.35;;;16.00;;
1390;SDS011;690;51.454;7.194;2022-11-20T03:33:48;24.15;;;17.08;;
1390;SDS011;690;51.454;7.194;2022-11-20T03:36:16;25.42;;;16.27;;
1390;SDS011;690;51.454;7.194;2022-11-20T03:38:45;25.98;;;16.17;;
1390;SDS011;690;51.454;7.194;2022-11-20T03:41:16;26.83;;;17.33;;
1390;SDS011;690;51.454;7.194;2022-11-20T03:43:46;32.53;;;17.42;;
1390;SDS011;690;51.454;7.194;2022-11-20T03:46:14;24.63;;;15.48;;
1390;SDS011;690;51.454;7.194;2022-11-20T03:48:41;26.55;;;16.95;;
1390;SDS011;690;51.454;7.194;2022-11-20T03:51:10;23.95;;;16.05;;
1390;SDS011;690;51.454;7.194;2022-11-20T03:53:38;26.60;;;16.58;;
1390;SDS011;690;51.454;7.194;2022-11-20T03:56:06;24.75;;;14.88;;
1390;SDS011;690;51.454;7.194;2022-11-20T03:58:34;22.60;;;14.93;;
1390;SDS011;690;51.454;7.194;2022-11-20T04:01:05;26.35;;;16.02;;
1390;SDS011;690;51.454;7.194;2022-11-20T04:03:33;24.35;;;15.82;;
1390;SDS011;690;51.454;7.194;2022-11-20T04:06:04;26.95;;;18.50;;
1390;SDS011;690;51.454;7.194;2022-11-20T04:08:33;23.60;;;16.50;;
1390;SDS011;690;51.454;7.194;2022-11-20T04:11:10;27.85;;;17.90;;
1390;SDS011;690;51.454;7.194;2022-11-20T04:13:38;25.48;;;15.65;;
1390;SDS011;690;51.454;7.194;2022-11-20T04:16:06;27.48;;;16.45;;
1390;SDS011;690;51.454;7.194;2022-11-20T04:18:34;28.52;;;17.20;;
1390;SDS011;690;51.454;7.194;2022-11-20T04:21:01;24.00;;;15.10;;
1390;SDS011;690;51.454;7.194;2022-11-20T04:23:29;25.77;;;17.08;;
1390;SDS011;690;51.454;7.194;2022-11-20T04:26:01;22.85;;;16.23;;
1390;SDS011;690;51.454;7.194;2022-11-20T04:28:29;24.55;;;16.55;;
1390;SDS011;690;51.454;7.194;2022-11-20T04:31:01;22.30;;;15.75;;
1390;SDS011;690;51.454;7.194;2022-11-20T04:33:29;24.92;;;15.98;;
1390;SDS011;690;51.454;7.194;2022-11-20T04:35:59;24.17;;;15.77;;
1390;SDS011;690;51.454;7.194;2022-11-20T04:38:27;24.67;;;15.20;;
1390;SDS011;690;51.454;7.194;2022-11-20T04:40:55;24.55;;;16.10;;
1390;SDS011;690;51.454;7.194;2022-11-20T04:43:25;24.73;;;15.52;;
1390;SDS011;690;51.454;7.194;2022-11-20T04:45:52;27.80;;;18.42;;
1390;SDS011;690;51.454;7.194;2022-11-20T04:48:19;23.60;;;15.98;;
1390;SDS011;690;51.454;7.194;2022-11-20T04:50:46;26.90;;;15.90;;
1390;SDS011;690;51.454;7.194;2022-11-20T04:53:13;27.95;;;17.30;;
1390;SDS011;690;51.454;7.194;2022-11-20T04:55:40;24.55;;;16.02;;
1390;SDS011;690;51.454;7.194;2022-11-20T04:58:07;23.90;;;16.20;;
1390;SDS011;690;51.454;7.194;2022-11-20T05:00:36;23.38;;;15.93;;
1390;SDS011;690;51.454;7.194;2022-11-20T05:03:03;23.20;;;15.60;;
1390;SDS011;690;51.454;7.194;2022-11-20T05:05:30;23.10;;;15.93;;
1390;SDS011;690;51.454;7.194;2022-11-20T05:07:57;27.48;;;16.95;;
1390;SDS011;690;51.454;7.194;2022-11-20T05:10:24;23.75;;;15.80;;
1390;SDS011;690;51.454;7.194;2022-11-20T05:12:52;20.67;;;16.20;;
1390;SDS011;690;51.454;7.194;2022-11-20T05:15:19;23.45;;;15.73;;
1390;SDS011;690;51.454;7.194;2022-11-20T05:17:48;21.20;;;15.02;;
1390;SDS011;690;51.454;7.194;2022-11-20T05:20:15;24.60;;;15.93;;
1390;SDS011;690;51.454;7.194;2022-11-20T05:22:42;24.10;;;15.00;;
1390;SDS011;690;51.454;7.194;2022-11-20T05:25:09;27.85;;;16.75;;
1390;SDS011;690;51.454;7.194;2022-11-20T05:27:36;25.70;;;16.85;;
1390;SDS011;690;51.454;7.194;2022-11-20T05:30:04;23.40;;;16.35;;
1390;SDS011;690;51.454;7.194;2022-11-20T05:32:32;26.13;;;16.65;;
1390;SDS011;690;51.454;7.194;2022-11-20T05:35:00;23.38;;;15.55;;
1390;SDS011;690;51.454;7.194;2022-11-20T05:37:27;22.55;;;15.70;;
1390;SDS011;690;51.454;7.194;2022-11-20T05:39:54;26.08;;;16.48;;
1390;SDS011;690;51.454;7.194;2022-11-20T05:42:21;27.20;;;17.27;;
1390;SDS011;690;51.454;7.194;2022-11-20T05:44:57;25.40;;;17.30;;
1390;SDS011;690;51.454;7.194;2022-11-20T05:47:24;26.60;;;16.33;;
1390;SDS011;690;51.454;7.194;2022-11-20T05:49:50;26.83;;;15.70;;
1390;SDS011;690;51.454;7.194;2022-11-20T05:52:19;22.40;;;15.05;;
1390;SDS011;690;51.454;7.194;2022-11-20T05:54:45;25.35;;;16.08;;
1390;SDS011;690;51.454;7.194;2022-11-20T05:57:12;23.90;;;15.70;;
1390;SDS011;690;51.454;7.194;2022-11-20T05:59:39;24.45;;;15.70;;
1390;SDS011;690;51.454;7.194;2022-11-20T06:02:06;22.45;;;15.15;;
1390;SDS011;690;51.454;7.194;2022-11-20T06:04:33;31.40;;;16.45;;
1390;SDS011;690;51.454;7.194;2022-11-20T06:07:00;23.67;;;15.25;;
1390;SDS011;690;51.454;7.194;2022-11-20T06:09:28;24.10;;;15.75;;
1390;SDS011;690;51.454;7.194;2022-11-20T06:11:55;25.05;;;16.02;;
1390;SDS011;690;51.454;7.194;2022-11-20T06:14:22;32.40;;;17.98;;
1390;SDS011;690;51.454;7.194;2022-11-20T06:16:49;25.00;;;17.08;;
1390;SDS011;690;51.454;7.194;2022-11-20T06:19:16;27.10;;;17.45;;
1390;SDS011;690;51.454;7.194;2022-11-20T06:21:43;26.10;;;16.05;;
1390;SDS011;690;51.454;7.194;2022-11-20T06:24:10;24.10;;;16.67;;
1390;SDS011;690;51.454;7.194;2022-11-20T06:26:39;28.60;;;16.38;;
1390;SDS011;690;51.454;7.194;2022-11-20T06:29:05;29.95;;;18.13;;
1390;SDS011;690;51.454;7.194;2022-11-20T06:31:32;27.08;;;17.58;;
1390;SDS011;690;51.454;7.194;2022-11-20T06:34:03;24.17;;;16.20;;
1390;SDS011;690;51.454;7.194;2022-11-20T06:36:30;24.00;;;15.50;;
1390;SDS011;690;51.454;7.194;2022-11-20T06:38:58;24.65;;;15.98;;
1390;SDS011;690;51.454;7.194;2022-11-20T06:41:25;25.80;;;15.15;;
1390;SDS011;690;51.454;7.194;2022-11-20T06:43:54;22.58;;;15.52;;
1390;SDS011;690;51.454;7.194;2022-11-20T06:46:21;25.13;;;16.33;;
1390;SDS011;690;51.454;7.194;2022-11-20T06:48:48;21.77;;;14.55;;
1390;SDS011;690;51.454;7.194;2022-11-20T06:51:16;23.10;;;16.15;;
1390;SDS011;690;51.454;7.194;2022-11-20T06:53:43;26.30;;;16.15;;
1390;SDS011;690;51.454;7.194;2022-11-20T06:56:10;23.33;;;15.75;;
1390;SDS011;690;51.454;7.194;2022-11-20T06:58:37;23.10;;;16.60;;
1390;SDS011;690;51.454;7.194;2022-11-20T07:01:06;24.08;;;16.58;;
1390;SDS011;690;51.454;7.194;2022-11-20T07:03:34;23.35;;;16.33;;
1390;SDS011;690;51.454;7.194;2022-11-20T07:06:02;21.02;;;16.25;;
1390;SDS011;690;51.454;7.194;2022-11-20T07:08:30;25.42;;;16.73;;
1390;SDS011;690;51.454;7.194;2022-11-20T07:10:58;22.67;;;15.95;;
1390;SDS011;690;51.454;7.194;2022-11-20T07:13:25;23.55;;;14.70;;
1390;SDS011;690;51.454;7.194;2022-11-20T07:15:52;31.50;;;17.38;;
1390;SDS011;690;51.454;7.194;2022-11-20T07:18:20;31.38;;;18.23;;
1390;SDS011;690;51.454;7.194;2022-11-20T07:20:48;26.90;;;16.65;;
1390;SDS011;690;51.454;7.194;2022-11-20T07:23:14;23.60;;;16.05;;
1390;SDS011;690;51.454;7.194;2022-11-20T07:25:41;23.00;;;15.60;;
1390;SDS011;690;51.454;7.194;2022-11-20T07:28:08;28.13;;;17.70;;
1390;SDS011;690;51.454;7.194;2022-11-20T07:30:36;24.52;;;16.55;;
1390;SDS011;690;51.454;7.194;2022-11-20T07:33:03;26.27;;;16.27;;
1390;SDS011;690;51.454;7.194;2022-11-20T07:35:31;25.30;;;16.95;;
1390;SDS011;690;51.454;7.194;2022-11-20T07:37:58;23.15;;;15.15;;
1390;SDS011;690;51.454;7.194;2022-11-20T07:40:25;28.17;;;17.38;;
1390;SDS011;690;51.454;7.194;2022-11-20T07:42:53;25.55;;;16.23;;
1390;SDS011;690;51.454;7.194;2022-11-20T07:45:21;24.27;;;16.02;;
1390;SDS011;690;51.454;7.194;2022-11-20T07:47:50;30.20;;;17.63;;
1390;SDS011;690;51.454;7.194;2022-11-20T07:50:17;24.80;;;15.10;;
1390;SDS011;690;51.454;7.194;2022-11-20T07:52:46;26.20;;;16.83;;
1390;SDS011;690;51.454;7.194;2022-11-20T07:55:13;22.30;;;16.33;;
1390;SDS011;690;51.454;7.194;2022-11-20T07:57:41;22.60;;;15.45;;
1390;SDS011;690;51.454;7.194;2022-11-20T08:00:08;24.55;;;16.42;;
1390;SDS011;690;51.454;7.194;2022-11-20T08:02:37;21.85;;;14.65;;
1390;SDS011;690;51.454;7.194;2022-11-20T08:05:05;24.92;;;16.48;;
1390;SDS011;690;51.454;7.194;2022-11-20T08:07:35;26.40;;;15.77;;
1390;SDS011;690;51.454;7.194;2022-11-20T08:10:04;22.88;;;16.02;;
1390;SDS011;690;51.454;7.194;2022-11-20T08:12:32;27.48;;;16.05;;
1390;SDS011;690;51.454;7.194;2022-11-20T08:15:16;29.25;;;17.33;;
1390;SDS011;690;51.454;7.194;2022-11-20T08:17:43;25.52;;;17.33;;
1390;SDS011;690;51.454;7.194;2022-11-20T08:20:10;26.90;;;16.45;;
1390;SDS011;690;51.454;7.194;2022-11-20T08:22:37;23.10;;;15.77;;
1390;SDS011;690;51.454;7.194;2022-11-20T08:25:06;24.08;;;16.65;;
1390;SDS011;690;51.454;7.194;2022-11-20T08:27:33;24.15;;;15.93;;
1390;SDS011;690;51.454;7.194;2022-11-20T08:30:00;24.38;;;16.88;;
1390;SDS011;690;51.454;7.194;2022-11-20T08:32:27;26.70;;;17.55;;
1390;SDS011;690;51.454;7.194;2022-11-20T08:34:53;25.27;;;17.67;;
1390;SDS011;690;51.454;7.194;2022-11-20T08:37:20;31.77;;;18.65;;
1390;SDS011;690;51.454;7.194;2022-11-20T08:39:47;22.80;;;17.10;;
1390;SDS011;690;51.454;7.194;2022-11-20T08:42:15;33.28;;;19.45;;
1390;SDS011;690;51.454;7.194;2022-11-20T08:44:42;23.77;;;16.95;;
1390;SDS011;690;51.454;7.194;2022-11-20T08:47:09;28.08;;;18.58;;
1390;SDS011;690;51.454;7.194;2022-11-20T08:49:36;26.35;;;17.40;;
1390;SDS011;690;51.454;7.194;2022-11-20T08:52:03;29.50;;;19.00;;
1390;SDS011;690;51.454;7.194;2022-11-20T08:54:30;26.73;;;18.70;;
1390;SDS011;690;51.454;7.194;2022-11-20T08:56:57;28.98;;;19.75;;
1390;SDS011;690;51.454;7.194;2022-11-20T08:59:25;30.10;;;20.05;;
1390;SDS011;690;51.454;7.194;2022-11-20T09:01:52;28.73;;;19.67;;
1390;SDS011;690;51.454;7.194;2022-11-20T09:04:19;30.00;;;20.98;;
1390;SDS011;690;51.454;7.194;2022-11-20T09:06:46;29.73;;;21.42;;
1390;SDS011;690;51.454;7.194;2022-11-20T09:09:15;40.60;;;28.85;;
1390;SDS011;690;51.454;7.194;2022-11-20T09:11:42;45.92;;;30.92;;
1390;SDS011;690;51.454;7.194;2022-11-20T09:14:09;38.00;;;27.70;;
1390;SDS011;690;51.454;7.194;2022-11-20T09:16:38;40.13;;;28.42;;
1390;SDS011;690;51.454;7.194;2022-11-20T09:19:04;35.58;;;24.38;;
1390;SDS011;690;51.454;7.194;2022-11-20T09:21:31;31.10;;;21.50;;
1390;SDS011;690;51.454;7.194;2022-11-20T09:23:58;36.45;;;25.25;;
1390;SDS011;690;51.454;7.194;2022-11-20T09:26:25;38.47;;;23.45;;
1390;SDS011;690;51.454;7.194;2022-11-20T09:28:52;45.78;;;26.02;;
1390;SDS011;690;51.454;7.194;2022-11-20T09:31:21;38.00;;;25.15;;
1390;SDS011;690;51.454;7.194;2022-11-20T09:33:50;35.25;;;23.50;;
1390;SDS011;690;51.454;7.194;2022-11-20T09:36:17;36.65;;;25.00;;
1390;SDS011;690;51.454;7.194;2022-11-20T09:38:44;38.50;;;25.02;;
1390;SDS011;690;51.454;7.194;2022-11-20T09:41:18;43.00;;;25.55;;
1390;SDS011;690;51.454;7.194;2022-11-20T09:43:58;40.47;;;24.95;;
1390;SDS011;690;51.454;7.194;2022-11-20T09:46:35;43.38;;;26.40;;
1390;SDS011;690;51.454;7.194;2022-11-20T09:49:14;33.55;;;23.13;;
1390;SDS011;690;51.454;7.194;2022-11-20T09:51:51;40.08;;;25.00;;
1390;SDS011;690;51.454;7.194;2022-11-20T09:54:25;41.45;;;24.98;;
1390;SDS011;690;51.454;7.194;2022-11-20T09:56:56;40.92;;;25.88;;
1390;SDS011;690;51.454;7.194;2022-11-20T09:59:32;36.28;;;22.63;;
1390;SDS011;690;51.454;7.194;2022-11-20T10:02:02;37.47;;;24.40;;
1390;SDS011;690;51.454;7.194;2022-11-20T10:04:44;38.78;;;23.33;;
1390;SDS011;690;51.454;7.194;2022-11-20T10:07:16;34.60;;;21.40;;
1390;SDS011;690;51.454;7.194;2022-11-20T10:09:49;38.55;;;22.38;;
1390;SDS011;690;51.454;7.194;2022-11-20T10:12:21;36.28;;;20.88;;
1390;SDS011;690;51.454;7.194;2022-11-20T10:15:07;30.17;;;18.10;;
1390;SDS011;690;51.454;7.194;2022-11-20T10:17:53;29.95;;;18.63;;
1390;SDS011;690;51.454;7.194;2022-11-20T10:20:29;18.77;;;11.23;;
1390;SDS011;690;51.454;7.194;2022-11-20T10:23:16;16.08;;;9.55;;
1390;SDS011;690;51.454;7.194;2022-11-20T10:26:12;15.98;;;10.60;;
1390;SDS011;690;51.454;7.194;2022-11-20T10:28:54;16.90;;;12.20;;
1390;SDS011;690;51.454;7.194;2022-11-20T10:31:30;22.27;;;12.45;;
1390;SDS011;690;51.454;7.194;2022-11-20T10:33:59;23.05;;;13.48;;
1390;SDS011;690;51.454;7.194;2022-11-20T10:36:33;19.08;;;14.02;;
1390;SDS011;690;51.454;7.194;2022-11-20T10:39:05;20.52;;;12.85;;
1390;SDS011;690;51.454;7.194;2022-11-20T10:41:38;20.55;;;12.35;;
1390;SDS011;690;51.454;7.194;2022-11-20T10:44:09;18.45;;;11.90;;
1390;SDS011;690;51.454;7.194;2022-11-20T10:47:01;19.08;;;12.60;;
1390;SDS011;690;51.454;7.194;2022-11-20T10:49:30;21.00;;;13.20;;
1390;SDS011;690;51.454;7.194;2022-11-20T10:52:02;18.40;;;11.73;;
1390;SDS011;690;51.454;7.194;2022-11-20T10:54:37;22.77;;;13.30;;
1390;SDS011;690;51.454;7.194;2022-11-20T10:57:14;19.85;;;12.60;;
1390;SDS011;690;51.454;7.194;2022-11-20T10:59:51;24.20;;;14.53;;
1390;SDS011;690;51.454;7.194;2022-11-20T11:02:31;24.40;;;14.93;;
1390;SDS011;690;51.454;7.194;2022-11-20T11:05:04;21.40;;;14.97;;
1390;SDS011;690;51.454;7.194;2022-11-20T11:07:44;20.33;;;13.80;;
1390;SDS011;690;51.454;7.194;2022-11-20T11:10:15;20.60;;;14.52;;
1390;SDS011;690;51.454;7.194;2022-11-20T11:12:44;17.93;;;13.10;;
1390;SDS011;690;51.454;7.194;2022-11-20T11:15:14;18.23;;;13.10;;
1390;SDS011;690;51.454;7.194;2022-11-20T11:17:52;20.07;;;13.50;;
1390;SDS011;690;51.454;7.194;2022-11-20T11:20:19;21.73;;;15.00;;
1390;SDS011;690;51.454;7.194;2022-11-20T11:22:49;21.10;;;14.87;;
1390;SDS011;690;51.454;7.194;2022-11-20T11:25:22;20.23;;;13.93;;
1390;SDS011;690;51.454;7.194;2022-11-20T11:27:55;26.20;;;15.03;;
1390;SDS011;690;51.454;7.194;2022-11-20T11:30:23;18.63;;;14.83;;
1390;SDS011;690;51.454;7.194;2022-11-20T11:33:02;19.03;;;14.20;;
1390;SDS011;690;51.454;7.194;2022-11-20T11:35:31;17.63;;;13.17;;
1390;SDS011;690;51.454;7.194;2022-11-20T11:38:03;14.73;;;11.67;;
1390;SDS011;690;51.454;7.194;2022-11-20T11:40:33;14.93;;;11.13;;
1390;SDS011;690;51.454;7.194;2022-11-20T11:43:03;17.30;;;11.90;;
1390;SDS011;690;51.454;7.194;2022-11-20T11:45:53;18.07;;;12.43;;
1390;SDS011;690;51.454;7.194;2022-11-20T11:48:20;19.07;;;12.83;;
1390;SDS011;690;51.454;7.194;2022-11-20T11:50:48;18.40;;;12.77;;
1390;SDS011;690;51.454;7.194;2022-11-20T11:53:17;20.23;;;12.60;;
1390;SDS011;690;51.454;7.194;2022-11-20T11:55:46;21.33;;;14.10;;
1390;SDS011;690;51.454;7.194;2022-11-20T11:58:20;19.23;;;14.30;;
1390;SDS011;690;51.454;7.194;2022-11-20T12:01:06;18.90;;;13.37;;
1390;SDS011;690;51.454;7.194;2022-11-20T12:03:38;19.80;;;13.40;;
1390;SDS011;690;51.454;7.194;2022-11-20T12:06:09;18.13;;;14.03;;
1390;SDS011;690;51.454;7.194;2022-11-20T12:08:41;17.90;;;13.40;;
1390;SDS011;690;51.454;7.194;2022-11-20T12:11:11;18.57;;;12.37;;
1390;SDS011;690;51.454;7.194;2022-11-20T12:13:44;19.67;;;14.07;;
1390;SDS011;690;51.454;7.194;2022-11-20T12:16:19;15.07;;;12.27;;
1390;SDS011;690;51.454;7.194;2022-11-20T12:18:47;16.73;;;12.60;;
1390;SDS011;690;51.454;7.194;2022-11-20T12:21:18;19.40;;;13.43;;
1390;SDS011;690;51.454;7.194;2022-11-20T12:23:56;19.43;;;13.37;;
1390;SDS011;690;51.454;7.194;2022-11-20T12:26:32;16.60;;;12.13;;
1390;SDS011;690;51.454;7.194;2022-11-20T12:29:10;20.13;;;12.93;;
1390;SDS011;690;51.454;7.194;2022-11-20T12:31:51;18.00;;;13.20;;
1390;SDS011;690;51.454;7.194;2022-11-20T12:34:40;18.13;;;12.77;;
1390;SDS011;690;51.454;7.194;2022-11-20T12:37:16;19.30;;;13.40;;
1390;SDS011;690;51.454;7.194;2022-11-20T12:39:49;17.47;;;12.33;;
1390;SDS011;690;51.454;7.194;2022-11-20T12:42:23;18.50;;;12.50;;
1390;SDS011;690;51.454;7.194;2022-11-20T12:48:19;16.53;;;12.40;;
1390;SDS011;690;51.454;7.194;2022-11-20T12:51:19;22.27;;;13.37;;
1390;SDS011;690;51.454;7.194;2022-11-20T12:54:00;18.97;;;13.23;;
1390;SDS011;690;51.454;7.194;2022-11-20T12:56:47;21.90;;;13.17;;
1390;SDS011;690;51.454;7.194;2022-11-20T12:59:23;19.17;;;12.90;;
1390;SDS011;690;51.454;7.194;2022-11-20T13:02:01;18.90;;;13.60;;
1390;SDS011;690;51.454;7.194;2022-11-20T13:04:55;18.30;;;13.60;;
1390;SDS011;690;51.454;7.194;2022-11-20T13:07:38;17.47;;;12.40;;
1390;SDS011;690;51.454;7.194;2022-11-20T13:10:10;20.10;;;13.50;;
1390;SDS011;690;51.454;7.194;2022-11-20T13:12:44;20.20;;;14.00;;
1390;SDS011;690;51.454;7.194;2022-11-20T13:15:15;19.47;;;14.67;;
1390;SDS011;690;51.454;7.194;2022-11-20T13:17:54;15.20;;;12.07;;
1390;SDS011;690;51.454;7.194;2022-11-20T13:20:24;16.87;;;12.67;;
1390;SDS011;690;51.454;7.194;2022-11-20T13:22:52;20.30;;;12.87;;
1390;SDS011;690;51.454;7.194;2022-11-20T13:25:22;23.90;;;15.33;;
1390;SDS011;690;51.454;7.194;2022-11-20T13:27:52;19.53;;;13.03;;
1390;SDS011;690;51.454;7.194;2022-11-20T13:30:20;20.73;;;12.80;;
1390;SDS011;690;51.454;7.194;2022-11-20T13:32:49;16.33;;;12.23;;
1390;SDS011;690;51.454;7.194;2022-11-20T13:35:28;17.30;;;11.73;;
1390;SDS011;690;51.454;7.194;2022-11-20T13:38:00;16.00;;;11.03;;
1390;SDS011;690;51.454;7.194;2022-11-20T13:40:30;20.33;;;12.27;;
1390;SDS011;690;51.454;7.194;2022-11-20T13:43:04;17.07;;;12.30;;
1390;SDS011;690;51.454;7.194;2022-11-20T13:45:37;19.10;;;12.87;;
1390;SDS011;690;51.454;7.194;2022-11-20T13:48:23;17.30;;;12.20;;
1390;SDS011;690;51.454;7.194;2022-11-20T13:50:56;18.90;;;12.33;;
1390;SDS011;690;51.454;7.194;2022-11-20T13:56:30;15.10;;;11.87;;
1390;SDS011;690;51.454;7.194;2022-11-20T13:59:08;20.73;;;13.43;;
1390;SDS011;690;51.454;7.194;2022-11-20T14:01:44;18.40;;;12.20;;
1390;SDS011;690;51.454;7.194;2022-11-20T14:04:13;17.73;;;12.40;;
1390;SDS011;690;51.454;7.194;2022-11-20T14:06:44;19.00;;;12.80;;
1390;SDS011;690;51.454;7.194;2022-11-20T14:09:23;20.30;;;13.60;;
1390;SDS011;690;51.454;7.194;2022-11-20T14:11:52;19.20;;;13.00;;
1390;SDS011;690;51.454;7.194;2022-11-20T14:14:21;19.93;;;13.30;;
1390;SDS011;690;51.454;7.194;2022-11-20T14:16:49;18.40;;;13.10;;
1390;SDS011;690;51.454;7.194;2022-11-20T14:19:22;18.33;;;12.93;;
1390;SDS011;690;51.454;7.194;2022-11-20T14:21:53;21.27;;;12.47;;
1390;SDS011;690;51.454;7.194;2022-11-20T14:24:33;20.10;;;13.17;;
1390;SDS011;690;51.454;7.194;2022-11-20T14:27:00;19.03;;;13.03;;
1390;SDS011;690;51.454;7.194;2022-11-20T14:29:33;17.40;;;12.47;;
1390;SDS011;690;51.454;7.194;2022-11-20T14:32:02;22.87;;;14.90;;
1390;SDS011;690;51.454;7.194;2022-11-20T14:34:30;21.73;;;12.97;;
1390;SDS011;690;51.454;7.194;2022-11-20T14:37:02;17.27;;;12.90;;
1390;SDS011;690;51.454;7.194;2022-11-20T14:39:32;20.20;;;13.67;;
1390;SDS011;690;51.454;7.194;2022-11-20T14:42:01;17.80;;;13.53;;
1390;SDS011;690;51.454;7.194;2022-11-20T14:44:30;17.60;;;13.40;;
1390;SDS011;690;51.454;7.194;2022-11-20T14:46:59;16.87;;;12.60;;
1390;SDS011;690;51.454;7.194;2022-11-20T14:49:28;17.53;;;14.03;;
1390;SDS011;690;51.454;7.194;2022-11-20T14:51:58;21.93;;;15.00;;
1390;SDS011;690;51.454;7.194;2022-11-20T14:54:26;19.30;;;13.83;;
1390;SDS011;690;51.454;7.194;2022-11-20T14:56:54;21.10;;;14.10;;
1390;SDS011;690;51.454;7.194;2022-11-20T14:59:23;20.00;;;13.93;;
1390;SDS011;690;51.454;7.194;2022-11-20T15:01:55;16.93;;;12.90;;
1390;SDS011;690;51.454;7.194;2022-11-20T15:04:24;18.57;;;13.60;;
1390;SDS011;690;51.454;7.194;2022-11-20T15:06:51;23.33;;;14.82;;
1390;SDS011;690;51.454;7.194;2022-11-20T15:09:19;20.08;;;14.00;;
1390;SDS011;690;51.454;7.194;2022-11-20T15:11:52;23.07;;;16.07;;
1390;SDS011;690;51.454;7.194;2022-11-20T15:14:21;22.73;;;15.77;;
1390;SDS011;690;51.454;7.194;2022-11-20T15:16:49;22.42;;;15.43;;
1390;SDS011;690;51.454;7.194;2022-11-20T15:19:19;20.17;;;14.23;;
1390;SDS011;690;51.454;7.194;2022-11-20T15:21:47;22.80;;;16.10;;
1390;SDS011;690;51.454;7.194;2022-11-20T15:24:14;32.50;;;20.13;;